SCTB

Details ICAO SCTB
Name Eulogio Sanchez
Region Chile
Timezone America/Santiago (UTC-4.0)
Plans Departing 42
Arriving 15
Stats Elevation 2,129 ft / 649 m (AMSL)
Location -33.456264° -70.546667°
Runways 1
Magnetic Variation 1.542° E
Sunrise 2018-05-23 11:33:31 UTC / 2018-05-23 07:33:31 Local
Sunset 2018-05-23 21:47:15 UTC / 2018-05-23 17:47:15 Local
Advertisement - Login to hide

Runways

ID Width Length Bearing (true) Bearing (mag) Surface Threshold Offset Overrun Length
01 88 ft / 27 m 3,752 ft / 1,144 m 12.76° 11.22° Asphalt 0 ft / 0 m 0 ft / 0 m
19 88 ft / 27 m 3,752 ft / 1,144 m 192.76° 191.22° Asphalt 552 ft / 168 m 0 ft / 0 m

Map

Weather


0- 5 10 15 20 25 30 35+ Temperature / ° C

Clouds and Precipitation
Forecast for 2018-05-23 12:00 UTC. Updated 2 hours ago

Ground ~20,000 ft ~40,000 ft Winds

METAR

SCTB 231300Z 08001KT CAVOK 08/03 Q1020

TAF

Not found

Frequencies

Ground 121.60 MHz GND
Tower 118.70 MHz TOBALABA TWR
Warning: Do not use this data for real-world aviation or navigation. No guarantee of current accuracy is given.